Time;durP1;ratioP1;P1;durP2;ratioP2;P2;SDS_P1;SDS_P2;PMS_P1;PMS_P2;Temp;Humidity;BMP_temperature;BMP_pressure;BME280_temperature;BME280_humidity;BME280_pressure;Samples;Min_cycle;Max_cycle;Signal;HPM_P1;HPM_P2
2021/04/19 00:00:28;;;;;;;39.03;21.25;;;;;;;1.07;100.00;96267.75;1028269;28;20015;-61
2021/04/19 00:00:59;;;;;;;37.10;22.90;;;;;;;1.08;100.00;96266.81;1028292;28;20025;-61
2021/04/19 00:01:30;;;;;;;43.95;23.25;;;;;;;1.08;100.00;96265.97;1032290;28;20109;-61
2021/04/19 00:02:00;;;;;;;39.75;22.95;;;;;;;1.09;100.00;96268.47;1036303;28;20014;-62
2021/04/19 00:02:31;;;;;;;42.70;24.48;;;;;;;1.09;100.00;96259.81;1036336;28;20022;-61
2021/04/19 00:03:02;;;;;;;41.40;23.17;;;;;;;1.09;100.00;96265.03;1032320;28;20018;-61
2021/04/19 00:03:33;;;;;;;35.53;22.80;;;;;;;1.09;100.00;96267.66;1020213;29;20024;-62
2021/04/19 00:04:04;;;;;;;36.53;22.33;;;;;;;1.10;100.00;96271.94;1032139;28;20026;-61
2021/04/19 00:04:35;;;;;;;37.72;21.85;;;;;;;1.11;100.00;96271.00;1036426;28;20652;-61
2021/04/19 00:05:09;;;;;;;37.95;21.92;;;;;;;1.11;100.00;96269.19;1028783;28;20011;-62
2021/04/19 00:05:40;;;;;;;38.70;23.10;;;;;;;1.10;100.00;96264.09;1032300;28;20548;-61
2021/04/19 00:06:11;;;;;;;41.88;23.05;;;;;;;1.11;100.00;96265.75;1028137;28;20053;-60
2021/04/19 00:06:42;;;;;;;37.85;22.40;;;;;;;1.13;100.00;96263.88;1024238;29;20462;-61
2021/04/19 00:07:12;;;;;;;38.35;22.42;;;;;;;1.13;100.00;96269.94;1028266;28;20102;-60
2021/04/19 00:07:43;;;;;;;35.85;22.73;;;;;;;1.12;100.00;96264.81;1028290;28;20022;-60
2021/04/19 00:08:14;;;;;;;36.95;22.17;;;;;;;1.14;100.00;96265.53;1028107;28;20019;-60
2021/04/19 00:08:45;;;;;;;38.53;21.45;;;;;;;1.13;100.00;96264.72;1024389;29;20023;-60
2021/04/19 00:09:16;;;;;;;35.88;21.67;;;;;;;1.16;100.00;96270.66;1032243;28;20018;-60
2021/04/19 00:09:47;;;;;;;36.90;22.25;;;;;;;1.16;100.00;96263.66;1024282;29;20543;-62
2021/04/19 00:10:19;;;;;;;38.53;21.98;;;;;;;1.16;100.00;96270.66;1032168;28;20018;-62
2021/04/19 00:10:50;;;;;;;39.15;22.70;;;;;;;1.10;100.00;96266.72;1024353;29;20103;-60
2021/04/19 00:11:21;;;;;;;42.30;23.50;;;;;;;1.09;100.00;96262.44;1024319;29;20027;-62
2021/04/19 00:11:52;;;;;;;37.88;23.17;;;;;;;1.12;100.00;96267.44;1028310;28;20516;-62
2021/04/19 00:12:23;;;;;;;38.97;22.77;;;;;;;1.15;100.00;96263.75;1020107;29;20024;-61
2021/04/19 00:12:54;;;;;;;36.88;22.55;;;;;;;1.15;100.00;96267.22;1024244;29;20454;-61
2021/04/19 00:13:24;;;;;;;38.75;23.00;;;;;;;1.16;100.00;96262.81;1024165;28;20038;-61
2021/04/19 00:13:55;;;;;;;38.33;22.77;;;;;;;1.16;100.00;96262.81;1036195;28;20554;-61
2021/04/19 00:14:26;;;;;;;35.58;22.52;;;;;;;1.18;100.00;96268.78;1020181;29;20027;-61
2021/04/19 00:14:57;;;;;;;37.92;23.45;;;;;;;1.16;100.00;96263.66;1032181;28;20037;-61
2021/04/19 00:15:28;;;;;;;36.92;22.75;;;;;;;1.18;100.00;96260.94;1024300;29;20156;-61
2021/04/19 00:16:00;;;;;;;39.67;22.55;;;;;;;1.18;100.00;96263.53;1020234;29;20028;-62
2021/04/19 00:16:30;;;;;;;39.65;22.70;;;;;;;1.12;100.00;96257.81;1020277;29;20458;-62
2021/04/19 00:17:01;;;;;;;40.88;23.75;;;;;;;1.15;100.00;96258.53;1028097;28;20029;-60
2021/04/19 00:17:33;;;;;;;37.65;22.65;;;;;;;1.16;100.00;96261.03;1020357;29;20024;-62
2021/04/19 00:18:04;;;;;;;37.13;22.65;;;;;;;1.14;100.00;96255.09;1020361;29;20102;-63
2021/04/19 00:18:35;;;;;;;41.35;23.23;;;;;;;1.15;100.00;96259.38;1024282;28;20053;-61
2021/04/19 00:19:06;;;;;;;41.80;23.08;;;;;;;1.16;100.00;96262.81;1028151;28;20018;-61
2021/04/19 00:19:37;;;;;;;36.65;22.33;;;;;;;1.15;100.00;96261.13;1032210;28;20035;-62
2021/04/19 00:20:08;;;;;;;38.10;21.90;;;;;;;1.13;100.00;96253.41;1032230;28;20060;-61
2021/04/19 00:20:39;;;;;;;41.63;24.10;;;;;;;1.10;100.00;96259.69;1036239;28;20013;-61
2021/04/19 00:21:10;;;;;;;38.03;23.55;;;;;;;1.11;100.00;96260.53;1032116;28;20109;-60
2021/04/19 00:21:41;;;;;;;42.40;24.30;;;;;;;1.07;100.00;96251.25;1028227;28;20019;-61
2021/04/19 00:22:11;;;;;;;45.35;23.92;;;;;;;1.09;100.00;96259.81;1032180;28;20076;-60
2021/04/19 00:22:42;;;;;;;39.70;23.10;;;;;;;1.11;100.00;96257.91;1024312;29;20035;-61
2021/04/19 00:23:13;;;;;;;41.40;23.83;;;;;;;1.09;100.00;96254.56;1028144;28;20045;-60
2021/04/19 00:23:44;;;;;;;43.25;24.42;;;;;;;1.10;100.00;96258.88;1036193;28;20224;-60
2021/04/19 00:24:15;;;;;;;40.53;23.13;;;;;;;1.08;100.00;96258.97;1024177;28;20027;-60
2021/04/19 00:24:45;;;;;;;37.92;22.50;;;;;;;1.08;100.00;96255.50;1024252;28;20050;-61
2021/04/19 00:25:16;;;;;;;41.50;24.55;;;;;;;1.08;100.00;96252.91;1024038;29;20019;-61
2021/04/19 00:25:47;;;;;;;40.95;23.40;;;;;;;1.09;100.00;96251.97;1024159;29;20163;-63
2021/04/19 00:26:18;;;;;;;41.10;23.27;;;;;;;1.10;100.00;96254.47;1028159;28;20022;-62
2021/04/19 00:26:49;;;;;;;42.35;24.08;;;;;;;1.12;100.00;96251.75;1028113;28;20113;-62
2021/04/19 00:27:19;;;;;;;38.65;21.83;;;;;;;1.13;100.00;96258.63;1020135;29;20047;-62
2021/04/19 00:27:51;;;;;;;42.10;24.80;;;;;;;0.90;100.00;96216.66;1024235;29;20019;-62
2021/04/19 00:28:21;;;;;;;45.05;24.50;;;;;;;1.09;100.00;96251.97;1024124;28;20027;-61
2021/04/19 00:28:52;;;;;;;38.67;22.92;;;;;;;1.04;100.00;96259.31;1028103;28;20022;-61
2021/04/19 00:29:23;;;;;;;44.25;23.63;;;;;;;1.04;100.00;96254.91;1024042;29;20066;-61
2021/04/19 00:29:54;;;;;;;40.15;22.27;;;;;;;1.05;100.00;96256.56;1024245;29;20029;-62
2021/04/19 00:30:25;;;;;;;41.75;23.70;;;;;;;1.05;100.00;96250.53;1024154;29;20114;-62
2021/04/19 00:30:56;;;;;;;42.28;24.83;;;;;;;1.06;100.00;96253.03;1028077;28;20481;-61
2021/04/19 00:31:27;;;;;;;39.08;23.70;;;;;;;0.94;100.00;96236.44;1028023;28;20093;-62
2021/04/19 00:31:57;;;;;;;43.67;24.38;;;;;;;1.09;100.00;96251.97;1036226;28;20029;-61
2021/04/19 00:32:28;;;;;;;45.78;24.65;;;;;;;1.10;100.00;96248.41;1028156;28;20323;-61
2021/04/19 00:32:59;;;;;;;41.25;24.13;;;;;;;1.12;100.00;96249.13;1020216;29;20540;-61
2021/04/19 00:33:30;;;;;;;39.88;22.70;;;;;;;1.15;100.00;96251.53;1023856;29;20098;-61
2021/04/19 00:34:02;;;;;;;40.53;23.52;;;;;;;1.16;100.00;96245.34;1028137;28;20046;-62
2021/04/19 00:34:33;;;;;;;40.90;24.23;;;;;;;1.18;100.00;96242.63;1032172;28;20038;-62
2021/04/19 00:35:06;;;;;;;39.05;22.20;;;;;;;1.20;100.00;96249.44;1032154;28;20084;-62
2021/04/19 00:35:37;;;;;;;39.95;22.23;;;;;;;1.23;100.00;96243.94;1020089;29;20055;-61
2021/04/19 00:36:08;;;;;;;41.90;23.20;;;;;;;1.23;100.00;96243.94;1036026;28;20086;-60
2021/04/19 00:36:39;;;;;;;42.35;22.95;;;;;;;1.24;100.00;96245.63;1036113;28;20018;-60
2021/04/19 00:37:09;;;;;;;45.50;23.65;;;;;;;1.26;100.00;96246.34;1024102;29;20031;-60
2021/04/19 00:37:40;;;;;;;42.13;24.17;;;;;;;1.28;100.00;96241.84;1032173;28;20268;-61
2021/04/19 00:38:11;;;;;;;38.33;21.92;;;;;;;1.29;100.00;96243.53;1028177;28;20054;-62
2021/04/19 00:38:42;;;;;;;39.58;23.88;;;;;;;1.25;100.00;96230.75;1024211;29;20027;-62
2021/04/19 00:39:13;;;;;;;38.58;22.95;;;;;;;1.31;100.00;96246.84;1028120;28;20489;-61
2021/04/19 00:39:44;;;;;;;39.45;22.55;;;;;;;1.25;100.00;96239.44;1032137;28;20370;-61
2021/04/19 00:40:17;;;;;;;39.60;22.85;;;;;;;1.26;100.00;96241.13;1024213;29;20432;-62
2021/04/19 00:40:48;;;;;;;40.67;23.20;;;;;;;1.19;100.00;96236.47;1024214;29;20059;-62
2021/04/19 00:41:19;;;;;;;42.85;23.27;;;;;;;1.16;100.00;96236.66;1028167;28;20027;-62
2021/04/19 00:41:49;;;;;;;38.80;23.60;;;;;;;1.19;100.00;96239.91;1024066;29;20393;-62
2021/04/19 00:42:21;;;;;;;39.35;22.83;;;;;;;1.24;100.00;96242.19;1024124;29;20035;-62
2021/04/19 00:42:52;;;;;;;39.95;23.38;;;;;;;1.24;100.00;96237.78;1024109;29;20023;-62
2021/04/19 00:43:23;;;;;;;36.83;21.55;;;;;;;1.25;100.00;96238.59;1032057;28;20404;-62
2021/04/19 00:43:54;;;;;;;39.65;22.70;;;;;;;1.25;100.00;96238.59;1027938;28;20015;-62
2021/04/19 00:44:25;;;;;;;41.42;23.17;;;;;;;1.21;100.00;96229.31;1028036;28;20015;-61
2021/04/19 00:45:07;;;;;;;35.50;20.75;;;;;;;1.26;100.00;96238.50;1028078;28;20401;-63
2021/04/19 00:45:38;;;;;;;40.38;23.40;;;;;;;1.24;100.00;96229.09;1023483;29;20024;-61
2021/04/19 00:46:09;;;;;;;36.95;21.38;;;;;;;1.21;100.00;96234.56;1027647;28;20018;-61
2021/04/19 00:46:40;;;;;;;37.80;21.90;;;;;;;1.18;100.00;96235.59;1032079;28;20397;-61
2021/04/19 00:47:13;;;;;;;36.75;21.55;;;;;;;1.19;100.00;96229.44;1028105;28;20382;-61
2021/04/19 00:47:45;;;;;;;38.63;22.58;;;;;;;1.21;100.00;96234.56;1028166;28;20019;-61
2021/04/19 00:48:17;;;;;;;37.67;22.25;;;;;;;1.20;100.00;96236.34;1027994;28;20019;-62
2021/04/19 00:48:47;;;;;;;35.58;20.52;;;;;;;1.19;100.00;96237.28;1032193;28;20025;-62
2021/04/19 00:49:18;;;;;;;37.08;21.25;;;;;;;1.25;100.00;96230.75;1024202;29;20469;-62
2021/04/19 00:49:49;;;;;;;36.85;21.10;;;;;;;1.22;100.00;96242.28;1032145;28;20015;-62
2021/04/19 00:50:22;;;;;;;39.15;23.48;;;;;;;1.25;100.00;96241.22;1024048;29;20054;-61
2021/04/19 00:50:55;;;;;;;36.17;22.08;;;;;;;1.24;100.00;96239.56;1020179;29;20020;-61
2021/04/19 00:51:26;;;;;;;41.30;22.33;;;;;;;1.23;100.00;96237.88;1024129;29;20027;-61
2021/04/19 00:51:57;;;;;;;36.95;21.42;;;;;;;0.96;100.00;96196.25;1020078;29;20546;-62
2021/04/19 00:52:28;;;;;;;35.65;21.27;;;;;;;1.30;100.00;96234.72;1019995;29;20058;-61
2021/04/19 00:53:00;;;;;;;35.72;22.20;;;;;;;1.36;100.00;96240.44;1032125;28;20018;-60
2021/04/19 00:53:31;;;;;;;38.80;22.70;;;;;;;1.42;100.00;96242.63;1019984;29;20110;-60
2021/04/19 00:54:02;;;;;;;38.42;21.17;;;;;;;1.46;100.00;96241.44;1023994;29;20043;-61
2021/04/19 00:54:33;;;;;;;41.28;23.42;;;;;;;1.44;100.00;96236.31;1028053;28;20484;-62
2021/04/19 00:55:09;;;;;;;36.00;20.80;;;;;;;1.39;100.00;96237.59;1028142;28;20026;-61
2021/04/19 00:55:40;;;;;;;40.92;22.85;;;;;;;1.41;100.00;96235.72;1024011;29;20027;-62
2021/04/19 00:56:10;;;;;;;36.35;21.83;;;;;;;1.37;100.00;96240.34;1024017;29;20557;-61
2021/04/19 00:56:41;;;;;;;36.35;21.38;;;;;;;1.36;100.00;96237.81;1023978;29;20031;-62
2021/04/19 00:57:12;;;;;;;38.67;22.45;;;;;;;1.35;100.00;96242.22;1020169;29;20019;-62
2021/04/19 00:57:43;;;;;;;38.90;22.55;;;;;;;1.37;100.00;96236.88;1020150;29;20442;-61
2021/04/19 00:58:14;;;;;;;35.28;20.58;;;;;;;1.35;100.00;96241.41;1020129;29;20012;-62
2021/04/19 00:58:46;;;;;;;36.05;21.08;;;;;;;1.32;100.00;96245.06;1027930;28;20018;-62
2021/04/19 00:59:17;;;;;;;38.60;22.27;;;;;;;1.24;100.00;96237.78;1028022;28;20019;-61
2021/04/19 00:59:48;;;;;;;37.28;21.58;;;;;;;1.28;100.00;96243.63;1020134;29;20098;-62
2021/04/19 01:00:23;;;;;;;37.78;21.70;;;;;;;1.36;100.00;96243.91;1020103;29;20019;-62
2021/04/19 01:00:54;;;;;;;37.78;22.73;;;;;;;1.36;100.00;96237.81;1024080;28;20015;-62
2021/04/19 01:01:26;;;;;;;37.47;23.42;;;;;;;1.39;100.00;96240.22;1024058;28;20012;-62
2021/04/19 01:01:58;;;;;;;34.88;21.70;;;;;;;1.35;100.00;96239.63;1028177;28;20019;-62
2021/04/19 01:02:29;;;;;;;38.67;22.35;;;;;;;1.42;100.00;96240.84;1023975;29;20019;-62
2021/04/19 01:03:00;;;;;;;37.78;22.63;;;;;;;1.45;100.00;96238.00;1024042;29;20038;-62
2021/04/19 01:03:33;;;;;;;33.65;20.13;;;;;;;1.45;100.00;96242.41;1027945;28;20023;-61
2021/04/19 01:04:04;;;;;;;35.78;22.15;;;;;;;1.27;100.00;96223.63;1023938;28;20106;-60
2021/04/19 01:04:35;;;;;;;36.05;21.48;;;;;;;1.38;100.00;96235.97;1023921;29;20043;-61
2021/04/19 01:05:11;;;;;;;39.05;22.02;;;;;;;1.33;100.00;96232.84;1028063;28;20448;-63
2021/04/19 01:05:42;;;;;;;35.10;20.42;;;;;;;1.43;100.00;96241.66;1020123;29;20020;-62
2021/04/19 01:06:12;;;;;;;36.38;20.52;;;;;;;1.42;100.00;96240.00;1036058;28;20045;-59
2021/04/19 01:06:44;;;;;;;34.30;21.58;;;;;;;1.48;100.00;96236.94;1019903;28;20386;-63
2021/04/19 01:07:14;;;;;;;37.55;21.00;;;;;;;1.35;100.00;96242.22;1028020;28;20022;-60
2021/04/19 01:07:45;;;;;;;36.42;21.70;;;;;;;1.42;100.00;96237.38;1028088;28;20026;-62
2021/04/19 01:08:16;;;;;;;37.70;21.73;;;;;;;1.36;100.00;96237.81;1036072;28;20022;-62
2021/04/19 01:08:47;;;;;;;36.08;22.08;;;;;;;1.35;100.00;96237.00;1027942;28;20054;-62
2021/04/19 01:09:18;;;;;;;37.25;20.90;;;;;;;1.29;100.00;96238.28;1035970;28;20018;-63
2021/04/19 01:09:49;;;;;;;36.63;22.13;;;;;;;1.31;100.00;96236.38;1024121;29;20493;-62
2021/04/19 01:10:20;;;;;;;37.95;22.10;;;;;;;1.33;100.00;96236.28;1027997;28;20015;-63
2021/04/19 01:10:51;;;;;;;37.15;21.02;;;;;;;1.27;100.00;96237.56;1031875;28;20011;-62
2021/04/19 01:11:22;;;;;;;34.83;20.70;;;;;;;1.29;100.00;96235.66;1028003;28;20011;-61
2021/04/19 01:11:53;;;;;;;39.65;21.27;;;;;;;1.34;100.00;96235.31;1024028;29;20019;-61
2021/04/19 01:12:24;;;;;;;34.78;20.02;;;;;;;1.39;100.00;96237.59;1031918;28;20014;-62
2021/04/19 01:12:55;;;;;;;35.20;22.25;;;;;;;1.35;100.00;96233.56;1020123;29;20015;-62
2021/04/19 01:13:26;;;;;;;34.28;20.27;;;;;;;1.33;100.00;96236.28;1023974;29;20012;-62
2021/04/19 01:13:56;;;;;;;34.78;21.05;;;;;;;1.35;100.00;96233.56;1019932;29;20267;-62
2021/04/19 01:14:27;;;;;;;36.78;21.73;;;;;;;1.37;100.00;96236.88;1028027;28;20086;-62
2021/04/19 01:14:58;;;;;;;35.45;21.52;;;;;;;1.34;100.00;96235.31;1031966;28;20072;-62
2021/04/19 01:15:29;;;;;;;38.25;23.10;;;;;;;1.31;100.00;96231.16;1024001;29;20007;-61
2021/04/19 01:16:00;;;;;;;38.50;21.02;;;;;;;1.29;100.00;96227.81;1031932;28;20040;-62
2021/04/19 01:16:30;;;;;;;34.53;21.38;;;;;;;1.26;100.00;96233.28;1036046;28;20017;-61
2021/04/19 01:17:01;;;;;;;35.38;20.92;;;;;;;1.26;100.00;96227.22;1023874;29;20019;-63
2021/04/19 01:17:32;;;;;;;37.58;22.23;;;;;;;1.27;100.00;96226.25;1031905;28;20018;-62
2021/04/19 01:18:04;;;;;;;37.65;22.80;;;;;;;1.27;100.00;96229.72;1020133;29;20028;-62
2021/04/19 01:18:35;;;;;;;33.63;21.33;;;;;;;1.27;100.00;96228.88;1016174;29;20076;-62
2021/04/19 01:19:05;;;;;;;36.58;22.83;;;;;;;1.28;100.00;96227.94;1024055;29;20025;-62
2021/04/19 01:19:37;;;;;;;34.15;20.83;;;;;;;1.28;100.00;96231.38;1023984;29;20390;-62
2021/04/19 01:20:09;;;;;;;36.22;21.55;;;;;;;1.30;100.00;96229.47;1031998;28;20072;-62
2021/04/19 01:20:42;;;;;;;33.65;20.35;;;;;;;1.29;100.00;96235.66;1031919;28;20152;-62
2021/04/19 01:21:13;;;;;;;37.42;22.33;;;;;;;1.28;100.00;96230.53;1016015;29;20087;-60
2021/04/19 01:21:44;;;;;;;34.63;20.73;;;;;;;1.29;100.00;96234.84;1027959;28;20026;-60
2021/04/19 01:22:15;;;;;;;33.65;21.00;;;;;;;1.27;100.00;96234.94;1016138;29;20024;-60
2021/04/19 01:22:46;;;;;;;35.75;21.48;;;;;;;1.25;100.00;96228.97;1023910;29;20046;-60
2021/04/19 01:23:17;;;;;;;38.00;21.73;;;;;;;1.21;100.00;96224.91;1027882;28;20533;-60
2021/04/19 01:23:48;;;;;;;39.45;23.25;;;;;;;1.29;100.00;96235.66;1019779;29;20035;-60
2021/04/19 01:24:19;;;;;;;37.72;21.40;;;;;;;1.35;100.00;96228.31;1032123;28;20026;-60
2021/04/19 01:24:50;;;;;;;35.80;21.00;;;;;;;1.34;100.00;96234.50;1027970;28;20027;-61
2021/04/19 01:25:22;;;;;;;35.63;20.50;;;;;;;1.29;100.00;96235.66;1031809;28;20041;-60
2021/04/19 01:25:54;;;;;;;36.53;21.77;;;;;;;1.31;100.00;96230.34;1023957;29;20015;-62
2021/04/19 01:26:25;;;;;;;36.15;22.02;;;;;;;1.35;100.00;96237.00;1024000;29;20481;-61
2021/04/19 01:26:56;;;;;;;37.05;22.83;;;;;;;1.34;100.00;96237.09;1027890;28;20022;-60
2021/04/19 01:27:26;;;;;;;39.65;22.42;;;;;;;1.36;100.00;96227.34;1027891;28;20559;-59
2021/04/19 01:27:57;;;;;;;32.25;20.33;;;;;;;1.39;100.00;96227.13;1031943;28;20018;-60
2021/04/19 01:28:28;;;;;;;38.35;22.73;;;;;;;1.44;100.00;96232.88;1027966;28;20513;-61
2021/04/19 01:28:59;;;;;;;36.38;21.95;;;;;;;1.42;100.00;96232.16;1027865;28;20117;-62
2021/04/19 01:29:30;;;;;;;39.15;23.25;;;;;;;1.35;100.00;96229.16;1019978;29;20541;-61
2021/04/19 01:30:02;;;;;;;36.78;21.55;;;;;;;1.36;100.00;96227.34;1031965;28;20373;-61
2021/04/19 01:30:37;;;;;;;38.42;21.25;;;;;;;1.41;100.00;96231.34;1036182;28;20022;-63
2021/04/19 01:31:08;;;;;;;35.40;20.80;;;;;;;1.36;100.00;96228.22;1027926;28;20023;-61
2021/04/19 01:31:39;;;;;;;34.38;21.40;;;;;;;1.30;100.00;96229.47;1035947;28;20024;-60
2021/04/19 01:32:09;;;;;;;40.28;22.27;;;;;;;1.31;100.00;96228.53;1019953;29;20043;-60
2021/04/19 01:32:40;;;;;;;36.00;21.48;;;;;;;1.35;100.00;96225.72;1019979;29;20439;-60
2021/04/19 01:33:12;;;;;;;34.88;20.92;;;;;;;1.41;100.00;96226.09;1027917;28;20034;-60
2021/04/19 01:33:43;;;;;;;36.22;20.42;;;;;;;1.40;100.00;96229.66;1027722;28;20090;-60
2021/04/19 01:34:13;;;;;;;38.90;22.38;;;;;;;1.39;100.00;96233.19;1023998;28;20106;-61
2021/04/19 01:34:44;;;;;;;38.17;22.60;;;;;;;1.36;100.00;96232.59;1031989;28;20018;-61
2021/04/19 01:35:15;;;;;;;37.67;22.42;;;;;;;1.39;100.00;96229.75;1023954;29;20042;-61
2021/04/19 01:35:47;;;;;;;36.50;20.92;;;;;;;1.37;100.00;96229.03;1019842;29;20016;-60
2021/04/19 01:36:17;;;;;;;38.03;22.80;;;;;;;1.34;100.00;96221.41;1023911;29;20024;-62
2021/04/19 01:36:48;;;;;;;37.65;20.73;;;;;;;1.39;100.00;96227.13;1015974;29;20028;-60
2021/04/19 01:37:19;;;;;;;37.28;21.70;;;;;;;1.42;100.00;96227.75;1019997;29;20518;-61
2021/04/19 01:37:50;;;;;;;36.53;21.08;;;;;;;1.43;100.00;96225.97;1027944;28;20023;-61
2021/04/19 01:38:22;;;;;;;38.45;22.13;;;;;;;1.43;100.00;96233.81;1035903;28;20508;-61
2021/04/19 01:38:53;;;;;;;36.35;21.83;;;;;;;1.44;100.00;96236.31;1019967;29;20020;-62
2021/04/19 01:39:24;;;;;;;35.92;22.48;;;;;;;1.40;100.00;96224.41;1027892;28;20421;-62
2021/04/19 01:39:55;;;;;;;36.45;21.73;;;;;;;1.39;100.00;96222.72;1031980;28;20030;-62
2021/04/19 01:40:27;;;;;;;39.67;22.55;;;;;;;1.42;100.00;96217.28;1027844;28;20025;-61
2021/04/19 01:40:58;;;;;;;34.08;20.83;;;;;;;1.41;100.00;96226.09;1036070;28;20026;-63
2021/04/19 01:41:29;;;;;;;38.42;21.77;;;;;;;1.39;100.00;96224.53;1031884;28;20113;-62
2021/04/19 01:42:00;;;;;;;34.92;21.75;;;;;;;1.40;100.00;96226.22;1031772;28;20493;-62
2021/04/19 01:42:31;;;;;;;39.15;23.15;;;;;;;1.38;100.00;96230.72;1027723;28;20093;-61
2021/04/19 01:43:02;;;;;;;35.47;21.17;;;;;;;1.40;100.00;96228.81;1027954;28;20030;-62
2021/04/19 01:43:33;;;;;;;38.15;21.70;;;;;;;1.39;100.00;96232.38;1031661;28;20029;-62
2021/04/19 01:44:04;;;;;;;37.30;21.95;;;;;;;1.37;100.00;96229.03;1019840;29;20260;-62
2021/04/19 01:44:35;;;;;;;39.08;22.40;;;;;;;1.37;100.00;96229.88;1023834;29;20085;-62
2021/04/19 01:45:06;;;;;;;35.80;21.65;;;;;;;1.39;100.00;96221.91;1031958;28;20030;-62
2021/04/19 01:45:37;;;;;;;36.58;22.25;;;;;;;1.39;100.00;96225.34;1032003;28;20022;-62
2021/04/19 01:46:08;;;;;;;38.83;22.95;;;;;;;1.36;100.00;96225.59;1023823;29;20023;-62
2021/04/19 01:46:39;;;;;;;35.83;21.15;;;;;;;1.28;100.00;96222.69;1031691;28;20089;-61
2021/04/19 01:47:10;;;;;;;37.72;22.10;;;;;;;1.24;100.00;96227.31;1027840;28;20512;-61
2021/04/19 01:47:41;;;;;;;36.95;21.92;;;;;;;1.24;100.00;96223.88;1027847;28;20034;-62
2021/04/19 01:48:12;;;;;;;38.70;21.83;;;;;;;1.20;100.00;96225.03;1031881;28;20018;-62
2021/04/19 01:48:43;;;;;;;32.90;21.42;;;;;;;1.26;100.00;96228.03;1035803;28;20045;-61
2021/04/19 01:49:17;;;;;;;34.88;21.30;;;;;;;0.97;100.00;96182.25;1027948;28;20026;-61
2021/04/19 01:49:47;;;;;;;38.28;21.58;;;;;;;1.26;100.00;96228.03;1023834;28;20110;-61
2021/04/19 01:50:21;;;;;;;38.15;21.42;;;;;;;1.23;100.00;96228.25;1031818;28;20100;-62
2021/04/19 01:50:53;;;;;;;38.33;22.10;;;;;;;1.24;100.00;96224.69;1027815;28;20018;-62
2021/04/19 01:51:27;;;;;;;37.35;21.33;;;;;;;1.20;100.00;96223.28;1023885;29;20030;-59
2021/04/19 01:51:58;;;;;;;37.80;22.45;;;;;;;1.15;100.00;96228.00;1023808;29;20023;-61
2021/04/19 01:52:29;;;;;;;37.20;21.88;;;;;;;1.11;100.00;96219.50;1023815;29;20019;-61
2021/04/19 01:53:00;;;;;;;38.85;22.13;;;;;;;1.15;100.00;96225.38;1027857;28;20312;-61
2021/04/19 01:53:31;;;;;;;39.33;22.10;;;;;;;1.17;100.00;96230.47;1031687;28;20022;-61
2021/04/19 01:54:02;;;;;;;37.42;23.38;;;;;;;1.21;100.00;96226.72;1019834;29;20023;-62
2021/04/19 01:54:33;;;;;;;35.22;22.33;;;;;;;1.22;100.00;96229.22;1019842;29;20047;-62
2021/04/19 01:55:06;;;;;;;36.08;22.33;;;;;;;1.18;100.00;96235.59;1027997;28;20043;-62
2021/04/19 01:55:38;;;;;;;38.95;23.08;;;;;;;1.19;100.00;96226.00;1031936;28;20399;-62
2021/04/19 01:56:08;;;;;;;36.67;22.48;;;;;;;1.23;100.00;96233.47;1019789;29;20043;-62
2021/04/19 01:56:39;;;;;;;37.25;22.42;;;;;;;1.23;100.00;96227.44;1031616;28;20086;-62
2021/04/19 01:57:10;;;;;;;38.33;22.42;;;;;;;1.25;100.00;96236.81;1019655;29;20222;-63
2021/04/19 01:57:44;;;;;;;40.28;22.40;;;;;;;1.27;100.00;96232.34;1028004;28;20465;-62
2021/04/19 01:58:18;;;;;;;38.22;21.85;;;;;;;1.28;100.00;96231.38;1035981;28;20414;-62
2021/04/19 01:58:48;;;;;;;36.22;21.15;;;;;;;1.31;100.00;96231.16;1031789;28;20117;-62
2021/04/19 01:59:20;;;;;;;34.30;21.02;;;;;;;1.30;100.00;96232.09;1023935;29;20027;-63
2021/04/19 01:59:51;;;;;;;38.83;22.23;;;;;;;1.29;100.00;96229.63;1027914;28;20026;-63
2021/04/19 02:00:23;;;;;;;38.83;21.95;;;;;;;1.28;100.00;96227.94;1019854;29;20502;-62
2021/04/19 02:00:57;;;;;;;38.75;23.33;;;;;;;1.27;100.00;96232.34;1023707;29;20086;-61
2021/04/19 02:01:28;;;;;;;36.67;21.92;;;;;;;1.27;100.00;96229.72;1035829;28;20021;-61
2021/04/19 02:02:09;;;;;;;37.72;22.63;;;;;;;1.28;100.00;96226.13;1031731;28;20026;-62
2021/04/19 02:02:51;;;;;;;38.10;21.42;;;;;;;1.23;100.00;96228.25;1027735;28;20019;-62
2021/04/19 02:03:29;;;;;;;38.25;21.20;;;;;;;1.26;100.00;96232.44;1019853;29;20118;-62
2021/04/19 02:04:09;;;;;;;35.83;21.40;;;;;;;1.19;100.00;96232.06;1035765;28;20024;-62
2021/04/19 02:04:44;;;;;;;41.08;22.42;;;;;;;1.17;100.00;96228.72;1027858;28;20023;-61
2021/04/19 02:05:28;;;;;;;35.28;21.33;;;;;;;1.20;100.00;96225.88;1015873;29;20430;-62
2021/04/19 02:06:14;;;;;;;37.22;21.95;;;;;;;1.16;100.00;96227.03;1015910;29;20376;-62
2021/04/19 02:06:57;;;;;;;36.92;21.08;;;;;;;1.14;100.00;96228.94;1019906;29;20399;-62
2021/04/19 02:07:44;;;;;;;37.75;22.42;;;;;;;1.13;100.00;96222.00;1023793;29;20054;-62
2021/04/19 02:08:21;;;;;;;37.90;21.95;;;;;;;1.21;100.00;96229.31;1031870;28;20033;-62
2021/04/19 02:08:55;;;;;;;39.38;21.25;;;;;;;1.23;100.00;96227.44;1035880;28;20025;-62
2021/04/19 02:09:28;;;;;;;42.08;23.70;;;;;;;1.23;100.00;96227.44;1027698;28;20022;-62
2021/04/19 02:10:19;;;;;;;35.35;20.80;;;;;;;1.25;100.00;96226.34;1027791;28;20026;-62
2021/04/19 02:11:03;;;;;;;38.53;21.75;;;;;;;1.26;100.00;96228.03;1027830;28;20018;-62
2021/04/19 02:11:43;;;;;;;40.53;21.23;;;;;;;1.21;100.00;96224.91;1032181;28;20030;-62
2021/04/19 02:12:25;;;;;;;35.42;21.13;;;;;;;1.16;100.00;96227.03;1031805;28;20417;-61
2021/04/19 02:13:16;;;;;;;35.47;20.95;;;;;;;1.20;100.00;96225.88;1023792;29;20025;-61
2021/04/19 02:13:51;;;;;;;39.20;21.13;;;;;;;1.10;100.00;96228.31;1027858;28;20023;-62
2021/04/19 02:14:35;;;;;;;36.42;21.95;;;;;;;1.12;100.00;96231.66;1023823;28;20023;-62
2021/04/19 02:15:07;;;;;;;39.42;22.33;;;;;;;1.09;100.00;96226.63;1023822;29;20429;-62
2021/04/19 02:15:51;;;;;;;42.70;22.25;;;;;;;1.12;100.00;96226.41;1027693;28;20030;-62
2021/04/19 02:16:37;;;;;;;38.85;21.52;;;;;;;1.16;100.00;96231.44;1031743;28;20054;-62
2021/04/19 02:17:16;;;;;;;40.08;22.58;;;;;;;1.09;100.00;96226.63;1023820;29;20019;-62
2021/04/19 02:17:54;;;;;;;44.20;22.95;;;;;;;1.08;100.00;96229.34;1031762;28;20037;-63
2021/04/19 02:18:45;;;;;;;40.97;23.42;;;;;;;1.08;100.00;96222.38;1027765;28;20401;-62
2021/04/19 02:19:33;;;;;;;40.50;22.23;;;;;;;1.08;100.00;96224.97;1023825;29;20143;-61
2021/04/19 02:20:06;;;;;;;38.85;21.90;;;;;;;1.13;100.00;96222.00;1024824;28;20389;-62
2021/04/19 02:20:46;;;;;;;41.88;21.83;;;;;;;1.15;100.00;96225.38;1027724;28;20023;-59
2021/04/19 02:21:38;;;;;;;39.05;21.73;;;;;;;1.10;100.00;96224.88;1035850;28;20034;-62
2021/04/19 02:22:13;;;;;;;46.30;22.95;;;;;;;1.02;100.00;96207.09;1027876;28;20023;-62
2021/04/19 02:22:51;;;;;;;37.22;21.42;;;;;;;1.12;100.00;96225.59;1019880;29;20051;-61
2021/04/19 02:23:34;;;;;;;41.80;23.17;;;;;;;1.11;100.00;96221.28;1023746;29;20027;-62
2021/04/19 02:24:06;;;;;;;41.63;24.25;;;;;;;1.17;100.00;96226.09;1027548;28;20054;-62
2021/04/19 02:24:39;;;;;;;41.15;22.88;;;;;;;1.20;100.00;96220.66;1031721;28;20022;-59
2021/04/19 02:25:15;;;;;;;41.20;23.08;;;;;;;1.21;100.00;96224.09;1027739;28;20019;-61
2021/04/19 02:25:46;;;;;;;39.30;22.23;;;;;;;1.21;100.00;96227.53;1023760;29;20201;-62
2021/04/19 02:26:34;;;;;;;40.47;24.27;;;;;;;1.23;100.00;96223.03;1019751;29;20525;-61
2021/04/19 02:27:09;;;;;;;39.83;21.23;;;;;;;1.28;100.00;96225.31;1027687;28;20031;-60
2021/04/19 02:27:43;;;;;;;42.97;23.58;;;;;;;1.28;100.00;96226.13;1027782;28;20081;-61
2021/04/19 02:28:19;;;;;;;37.95;21.83;;;;;;;1.34;100.00;96226.63;1024035;28;20035;-61
2021/04/19 02:28:54;;;;;;;38.47;21.80;;;;;;;1.34;100.00;96224.84;1031678;28;20022;-60
2021/04/19 02:29:35;;;;;;;40.25;23.02;;;;;;;1.30;100.00;96219.00;1035901;28;20132;-62
2021/04/19 02:30:08;;;;;;;38.83;23.17;;;;;;;1.33;100.00;96220.59;1030389;28;20018;-61